Terminal Aerodrome Forecast
Issued by NWS

Home | Current Version | Previous Version | Text Only | Print | Product List | Glossary On
Versions: 1 2 3 4 5 6 7 8 9 10 11 12 13 14 15 16 17 18 19 20 21 22 23 24
307
FTUS43 KIND 211125
TAFBMG
TAF
KBMG 211125Z 2112/2212 18005KT P6SM BKN200
     FM211600 20005KT P6SM VCSH BKN120
     FM212100 18004KT P6SM VCSH OVC030
     FM220000 18004KT P6SM OVC030
     FM220400 VRB03KT P6SM BKN015
     FM220500 19004KT 2SM BR BKN015
     FM221000 VRB03KT 1 1/2SM BR BKN025
      AMD LTD TO CLD VIS AND WIND TIL 211400=

USA.gov is the U.S. government's official web portal to all federal, state and local government web resources and services.